createdAt,value
2023-03-28T00:06:42.046Z,2.08
2023-03-28T00:14:15.994Z,2.11
2023-03-28T00:21:51.647Z,2.04
2023-03-28T00:29:26.247Z,2.02
2023-03-28T00:37:02.683Z,1.96
2023-03-28T00:44:44.694Z,1.88
2023-03-28T00:52:24.318Z,1.76
2023-03-28T00:59:58.627Z,1.70
2023-03-28T01:07:39.794Z,1.65
2023-03-28T01:15:13.824Z,1.62
2023-03-28T01:23:35.221Z,1.61
2023-03-28T01:31:34.290Z,1.66
2023-03-28T01:39:16.892Z,1.73
2023-03-28T01:46:57.873Z,1.78
2023-03-28T01:54:41.404Z,1.85
2023-03-28T02:02:24.894Z,1.79
2023-03-28T02:10:02.675Z,1.63
2023-03-28T02:17:54.537Z,1.50
2023-03-28T02:25:31.790Z,1.49
2023-03-28T02:33:10.095Z,1.31
2023-03-28T02:40:56.226Z,1.30
2023-03-28T02:48:56.728Z,1.26
2023-03-28T02:56:41.357Z,1.30
2023-03-28T03:04:17.247Z,1.33
2023-03-28T03:11:52.390Z,1.33
2023-03-28T03:19:26.440Z,1.31
2023-03-28T03:34:53.305Z,1.30
2023-03-28T03:42:29.060Z,1.29
2023-03-28T03:50:03.065Z,1.24
2023-03-28T03:57:38.467Z,1.16
2023-03-28T04:05:12.428Z,1.07
2023-03-28T04:12:47.666Z,1.02
2023-03-28T04:20:21.447Z,0.96
2023-03-28T04:27:56.825Z,0.90
2023-03-28T04:35:30.883Z,0.94
2023-03-28T04:43:06.325Z,0.89
2023-03-28T04:50:40.100Z,0.82
2023-03-28T04:58:15.889Z,0.81
2023-03-28T05:05:51.551Z,0.80
2023-03-28T05:13:26.988Z,0.78
2023-03-28T05:21:01.245Z,0.79
2023-03-28T05:28:36.898Z,0.82
2023-03-28T05:36:11.011Z,0.81
2023-03-28T05:43:46.645Z,0.86
2023-03-28T05:59:13.572Z,0.85
2023-03-28T06:06:48.731Z,0.88
2023-03-28T06:14:24.537Z,0.97
2023-03-28T06:21:58.985Z,1.07
2023-03-28T06:29:34.599Z,1.18
2023-03-28T06:37:08.628Z,1.34
2023-03-28T06:44:44.310Z,1.48
2023-03-28T06:52:19.729Z,1.69
2023-03-28T06:59:55.429Z,1.85
2023-03-28T07:07:29.309Z,2.00
2023-03-28T07:15:05.659Z,2.14
2023-03-28T07:22:39.495Z,2.28
2023-03-28T07:30:15.998Z,2.43
2023-03-28T07:37:49.838Z,2.48
2023-03-28T07:45:25.155Z,2.56
2023-03-28T07:53:00.150Z,2.72
2023-03-28T08:00:35.635Z,2.92
2023-03-28T08:08:09.946Z,3.10
2023-03-28T08:15:45.285Z,3.19
2023-03-28T08:23:19.229Z,3.50
2023-03-28T08:30:54.773Z,3.70
2023-03-28T08:38:29.244Z,4.23
2023-03-28T08:46:04.862Z,4.15
2023-03-28T08:53:44.101Z,4.27
2023-03-28T09:01:22.487Z,4.39
2023-03-28T09:09:29.051Z,4.52
2023-03-28T09:17:13.314Z,4.88
2023-03-28T09:24:58.514Z,4.62
2023-03-28T09:32:38.345Z,4.65
2023-03-28T09:40:21.268Z,4.55
2023-03-28T09:47:57.318Z,4.81
2023-03-28T09:55:32.272Z,4.82
2023-03-28T10:03:22.985Z,4.87
2023-03-28T10:11:00.193Z,4.82
2023-03-28T10:18:35.935Z,4.98
2023-03-28T10:26:13.777Z,5.30
2023-03-28T10:33:53.726Z,5.25
2023-03-28T10:41:28.623Z,5.18
2023-03-28T10:49:06.892Z,5.30
2023-03-28T10:56:44.663Z,5.26
2023-03-28T11:04:32.300Z,5.23
2023-03-28T11:12:28.310Z,5.56
2023-03-28T11:20:35.738Z,5.78
2023-03-28T11:28:21.051Z,5.82
2023-03-28T11:36:01.244Z,6.00
2023-03-28T11:43:42.595Z,5.86
2023-03-28T11:51:21.807Z,5.92
2023-03-28T11:59:02.173Z,6.11
2023-03-28T12:06:55.722Z,6.23
2023-03-28T12:22:42.518Z,6.26
2023-03-28T12:46:19.621Z,6.46
2023-03-28T12:54:22.519Z,6.26
2023-03-28T13:09:59.825Z,6.57
2023-03-28T13:17:37.840Z,6.68
2023-03-28T13:25:26.442Z,6.74
2023-03-28T13:33:04.047Z,6.78
2023-03-28T13:40:55.913Z,6.92
2023-03-28T13:48:34.943Z,6.98
2023-03-28T13:56:19.812Z,7.03
2023-03-28T14:03:55.085Z,7.12
2023-03-28T14:11:35.830Z,7.27
2023-03-28T14:19:20.082Z,7.43
2023-03-28T14:27:10.638Z,7.42
2023-03-28T14:34:45.786Z,7.41
2023-03-28T14:42:23.845Z,7.44
2023-03-28T14:49:58.264Z,7.68
2023-03-28T14:57:34.831Z,7.71
2023-03-28T15:05:11.251Z,8.13
2023-03-28T15:12:49.834Z,8.65
2023-03-28T15:20:27.623Z,8.81
2023-03-28T15:28:06.544Z,8.78
2023-03-28T15:35:43.730Z,8.57
2023-03-28T15:43:38.968Z,8.15
2023-03-28T15:51:17.430Z,7.92
2023-03-28T15:58:53.508Z,7.74
2023-03-28T16:14:05.661Z,8.00
2023-03-28T16:21:39.359Z,7.90
2023-03-28T16:29:14.663Z,7.68
2023-03-28T16:36:48.839Z,7.55
2023-03-28T16:44:24.641Z,7.47
2023-03-28T16:51:58.431Z,7.35
2023-03-28T16:59:33.718Z,7.21
2023-03-28T17:07:07.537Z,7.12
2023-03-28T17:14:43.089Z,7.07
2023-03-28T17:22:16.982Z,6.97
2023-03-28T17:29:52.557Z,6.86
2023-03-28T17:37:26.461Z,6.78
2023-03-28T17:45:01.860Z,6.67
2023-03-28T17:52:35.858Z,6.54
2023-03-28T18:00:12.600Z,6.42
2023-03-28T18:07:47.663Z,6.30
2023-03-28T18:15:22.842Z,6.15
2023-03-28T18:22:56.784Z,6.03
2023-03-28T18:30:32.181Z,5.91
2023-03-28T18:38:06.149Z,5.82
2023-03-28T18:45:41.940Z,5.71
2023-03-28T18:53:16.011Z,5.62
2023-03-28T19:00:57.526Z,5.50
2023-03-28T19:08:31.488Z,5.39
2023-03-28T19:16:09.101Z,5.26
2023-03-28T19:23:43.651Z,5.21
2023-03-28T19:31:20.297Z,5.11
2023-03-28T19:38:54.415Z,5.06
2023-03-28T19:46:33.766Z,4.98
2023-03-28T19:54:09.255Z,4.89
2023-03-28T20:01:44.687Z,4.79
2023-03-28T20:09:18.638Z,4.70
2023-03-28T20:16:53.821Z,4.59
2023-03-28T20:24:28.454Z,4.50
2023-03-28T20:32:04.926Z,4.41
2023-03-28T20:39:39.041Z,4.32
2023-03-28T20:47:20.486Z,4.23
2023-03-28T20:54:55.051Z,4.11
2023-03-28T21:02:33.731Z,4.01
2023-03-28T21:10:10.206Z,3.92
2023-03-28T21:17:49.172Z,3.85
2023-03-28T21:25:23.373Z,3.76
2023-03-28T21:33:02.126Z,3.71
2023-03-28T21:40:37.426Z,3.64
2023-03-28T21:48:13.280Z,3.58
2023-03-28T21:55:47.392Z,3.54
2023-03-28T22:03:23.869Z,3.47
2023-03-28T22:11:01.746Z,3.40
2023-03-28T22:18:37.285Z,3.33
2023-03-28T22:26:11.496Z,3.29
2023-03-28T22:33:47.390Z,3.27
2023-03-28T22:41:22.042Z,3.19
2023-03-28T22:48:58.577Z,3.14
2023-03-28T22:56:33.972Z,3.10
2023-03-28T23:04:09.233Z,3.04
2023-03-28T23:19:36.413Z,2.86
2023-03-28T23:27:10.276Z,2.77
2023-03-28T23:34:45.764Z,2.72
2023-03-28T23:42:19.852Z,2.66
2023-03-28T23:49:55.075Z,2.59
2023-03-28T23:57:29.521Z,2.52
